Currently 52°F in Hemet, California, USA
52°F
55°F / 52°F
calm
0.05"
Thursday, November 22, 2018 3:35 AM PST

Hemet, California Weather Summary
Last 36 Hours

Temperature Winds Hourly Humidity Dewpoint
Time Report Norm Report Norm Max Gusts Precip. Rpt. Norm Rpt. Norm Pressure
1Thu 03:35 AM  52.3°F  53°F  calm  calm  none  0.04"  81%  47%  46°F  32°F  30.03"
3Thu 03:30 AM  52.3°F  53°F  calm  calm  none  ----  80%  47%  46°F  32°F  30.03"
Thu 03:00 AM  53.2°F  53°F  calm  1 mph  none  0.01"  73%  47%  44°F  32°F  30.03"
2Thu 02:04 AM  55.2°F  53°F  calm  calm  none  ----  58%  47%  40°F  33°F  30.04"
Thu 02:00 AM  55.0°F  53°F  calm  1 mph  none  0.00"  57%  47%  39°F  33°F  30.04"
Thu 01:00 AM  54.3°F  53°F  calm  1 mph  none  0.00"  57%  47%  39°F  33°F  30.05"
Thu 12:00 AM  54.1°F  54°F  calm  1 mph  none  0.00"  55%  47%  38°F  33°F  30.07"
Wed 11:00 PM  53.4°F  54°F  calm  1 mph  none  0.00"  53%  47%  36°F  34°F  30.08"
Wed 10:00 PM  53.6°F  55°F  calm  1 mph  none  0.00"  52%  46%  36°F  34°F  30.09"
Wed 09:00 PM  53.6°F  56°F  calm  1 mph  none  0.00"  51%  45%  35°F  34°F  30.10"
Wed 08:00 PM  54.3°F  57°F  calm  1 mph  none  0.00"  48%  45%  34°F  34°F  30.10"
Wed 07:00 PM  56.8°F  58°F  calm  1 mph  3 mph  0.00"  44%  44%  34°F  35°F  30.07"
Wed 06:00 PM  58.6°F  60°F  3 mph SE  1 mph  5 mph  0.00"  41%  42%  34°F  36°F  30.08"
Wed 05:00 PM  59.9°F  63°F  calm  1 mph  6 mph  0.00"  45%  39%  38°F  37°F  30.05"
Wed 04:00 PM  63.5°F  68°F  2 mph SW  1 mph  8 mph  0.00"  41%  33%  38°F  37°F  30.03"
Wed 03:00 PM  68.2°F  70°F  4 mph W  1 mph  8 mph  0.00"  30%  31%  34°F  37°F  30.03"
Wed 02:00 PM  68.4°F  70°F  3 mph SW  1 mph  10 mph  0.00"  27%  30%  32°F  37°F  30.03"
Wed 01:00 PM  67.6°F  70°F  4 mph W  1 mph  9 mph  0.00"  27%  31%  31°F  37°F  30.04"
Wed 12:00 PM  65.5°F  68°F  2 mph W  1 mph  8 mph  0.00"  34%  34%  35°F  37°F  30.06"
Wed 11:00 AM  64.0°F  66°F  4 mph W  1 mph  8 mph  0.00"  34%  37%  34°F  38°F  30.09"
Wed 10:00 AM  63.1°F  63°F  3 mph NW  calm  3 mph  0.00"  33%  41%  32°F  38°F  30.08"
Wed 09:01 AM  61.5°F  61°F  calm  calm  none  0.00"  30%  43%  29°F  38°F  30.09"
Wed 08:00 AM  52.2°F  57°F  calm  calm  3 mph  0.00"  46%  44%  31°F  35°F  30.10"
Wed 07:00 AM  46.9°F  53°F  calm  calm  5 mph  0.00"  54%  46%  30°F  32°F  30.08"
Wed 06:00 AM  45.1°F  52°F  calm  1 mph  none  0.00"  56%  47%  30°F  32°F  30.07"
Wed 05:00 AM  46.9°F  53°F  calm  calm  none  0.00"  54%  47%  30°F  32°F  30.06"
Wed 04:00 AM  48.7°F  53°F  calm  1 mph  none  0.00"  50%  47%  30°F  32°F  30.05"
Wed 03:00 AM  48.4°F  53°F  calm  1 mph  none  0.00"  51%  47%  30°F  32°F  30.03"
Wed 02:00 AM  48.7°F  53°F  calm  1 mph  none  0.00"  53%  47%  32°F  33°F  30.04"
Wed 01:00 AM  49.3°F  54°F  calm  1 mph  2 mph  0.00"  48%  47%  30°F  33°F  30.04"
Wed 12:00 AM  48.9°F  54°F  calm  1 mph  none  0.00"  48%  47%  29°F  33°F  30.03"
Tue 11:00 PM  50.2°F  55°F  calm  1 mph  none  0.00"  52%  46%  32°F  34°F  30.04"
Tue 10:00 PM  49.8°F  55°F  calm  1 mph  2 mph  0.00"  52%  46%  32°F  34°F  30.04"
Tue 09:00 PM  52.0°F  56°F  calm  1 mph  none  0.00"  48%  45%  32°F  34°F  30.02"
Tue 08:00 PM  53.2°F  57°F  calm  1 mph  3 mph  0.00"  46%  45%  32°F  35°F  30.02"
Tue 07:00 PM  56.7°F  58°F  1 mph E  1 mph  6 mph  0.00"  46%  44%  35°F  35°F  29.99"
Tue 06:00 PM  59.0°F  60°F  1 mph SE  1 mph  5 mph  0.00"  46%  42%  37°F  36°F  29.96"
Tue 05:00 PM  62.6°F  63°F  2 mph SE  1 mph  6 mph  0.00"  36%  38%  34°F  37°F  29.94"
Tue 04:00 PM  69.4°F  69°F  3 mph SW  1 mph  8 mph  0.00"  23%  33%  29°F  37°F  29.93"

  1. Current weather data. No green row appears if the current weather data is also the high or low for the current day.
  2. High temperature for the current day.
  3. Low temperature for the current day.

The Hemet weather pages are a service of WeatherCurrents. Hemet, California is located in the San Jacinto Valley, in western Riverside County, at the foot of the San Jacinto mountains.
Copyright ©Thu Nov 22 03:36:40 PST 2018  WeatherCurrents. All rights reserved. - Submit questions and comments - Privacy Policy

This page automatically refreshes every 10 minutes.